createdAt,value
2016-07-01T00:00:33.973Z,0
2016-07-01T00:01:33.984Z,0
2016-07-01T00:02:33.982Z,0
2016-07-01T00:03:34.002Z,0
2016-07-01T00:04:34.587Z,0
2016-07-01T00:05:33.969Z,0
2016-07-01T00:06:33.420Z,0
2016-07-01T00:07:35.206Z,0
2016-07-01T00:08:33.997Z,0
2016-07-01T00:09:33.346Z,0
2016-07-01T00:10:32.783Z,0
2016-07-01T00:11:33.959Z,0
2016-07-01T00:12:49.381Z,0
2016-07-01T00:13:49.246Z,0
2016-07-01T00:14:33.863Z,0
2016-07-01T00:15:49.383Z,0
2016-07-01T00:16:34.574Z,0
2016-07-01T00:17:33.969Z,0
2016-07-01T00:18:33.961Z,0
2016-07-01T00:19:33.979Z,0
2016-07-01T00:20:33.348Z,0
2016-07-01T00:21:35.155Z,0
2016-07-01T00:22:37.280Z,0
2016-07-01T00:23:34.118Z,0
2016-07-01T00:24:48.670Z,0
2016-07-01T00:25:33.342Z,0
2016-07-01T00:26:34.307Z,0
2016-07-01T00:27:32.746Z,0
2016-07-01T00:28:34.706Z,0
2016-07-01T00:29:34.571Z,0
2016-07-01T00:30:32.711Z,0
2016-07-01T00:31:33.961Z,0
2016-07-01T00:32:35.150Z,0
2016-07-01T00:33:34.539Z,0
2016-07-01T00:34:32.716Z,0
2016-07-01T00:35:34.530Z,0
2016-07-01T00:36:33.934Z,0
2016-07-01T00:37:34.547Z,0
2016-07-01T00:38:52.498Z,0
2016-07-01T00:39:35.810Z,0
2016-07-01T00:40:36.120Z,0
2016-07-01T00:41:34.534Z,0
2016-07-01T00:42:34.154Z,0
2016-07-01T00:43:33.975Z,0
2016-07-01T00:44:33.295Z,0
2016-07-01T00:45:34.247Z,0
2016-07-01T00:46:33.922Z,0
2016-07-01T00:47:35.133Z,0
2016-07-01T00:48:51.716Z,0
2016-07-01T00:49:36.847Z,0
2016-07-01T00:50:34.415Z,0
2016-07-01T00:51:35.499Z,0
2016-07-01T00:52:34.539Z,0
2016-07-01T00:53:33.903Z,0
2016-07-01T00:54:34.555Z,0
2016-07-01T00:55:33.931Z,0
2016-07-01T00:56:33.939Z,0
2016-07-01T00:57:34.500Z,0
2016-07-01T00:58:34.528Z,0
2016-07-01T00:59:32.681Z,0
2016-07-01T01:00:33.963Z,0
2016-07-01T01:01:34.514Z,0
2016-07-01T01:02:33.886Z,0
2016-07-01T01:03:32.678Z,0
2016-07-01T01:04:33.906Z,0
2016-07-01T01:05:34.515Z,0
2016-07-01T01:06:35.107Z,0
2016-07-01T01:07:34.488Z,0
2016-07-01T01:08:33.871Z,0
2016-07-01T01:09:34.484Z,0
2016-07-01T01:10:33.905Z,0
2016-07-01T01:11:34.474Z,0
2016-07-01T01:12:33.879Z,0
2016-07-01T01:13:33.894Z,0
2016-07-01T01:14:33.266Z,0
2016-07-01T01:15:33.892Z,0
2016-07-01T01:16:33.892Z,0
2016-07-01T01:17:33.853Z,0
2016-07-01T01:18:33.907Z,0
2016-07-01T01:19:34.460Z,0
2016-07-01T01:20:33.287Z,0
2016-07-01T01:21:33.880Z,0
2016-07-01T01:22:33.850Z,0
2016-07-01T01:23:32.642Z,0
2016-07-01T01:24:33.854Z,0
2016-07-01T01:25:33.835Z,0
2016-07-01T01:26:33.255Z,0
2016-07-01T01:27:34.481Z,0
2016-07-01T01:28:33.474Z,0
2016-07-01T01:29:33.249Z,0
2016-07-01T01:30:34.479Z,0
2016-07-01T01:31:35.197Z,0
2016-07-01T01:32:33.642Z,0
2016-07-01T01:33:34.277Z,0
2016-07-01T01:34:35.209Z,0
2016-07-01T01:35:33.849Z,0
2016-07-01T01:36:35.155Z,0
2016-07-01T01:37:33.963Z,0
2016-07-01T01:38:35.067Z,0
2016-07-01T01:39:33.231Z,0
2016-07-01T01:40:34.735Z,0
2016-07-01T01:41:36.041Z,0
2016-07-01T01:42:33.814Z,0
2016-07-01T01:43:34.841Z,0
2016-07-01T01:44:48.907Z,0
2016-07-01T01:45:34.858Z,0
2016-07-01T01:46:33.844Z,0
2016-07-01T01:47:34.444Z,0
2016-07-01T01:48:33.827Z,0
2016-07-01T01:49:33.818Z,0
2016-07-01T01:50:34.428Z,0
2016-07-01T01:51:33.811Z,0
2016-07-01T01:52:33.847Z,0
2016-07-01T01:53:33.198Z,0
2016-07-01T01:54:34.433Z,0
2016-07-01T01:55:34.411Z,0
2016-07-01T01:56:35.030Z,0
2016-07-01T01:57:37.474Z,0
2016-07-01T01:58:36.902Z,0
2016-07-01T01:59:35.514Z,0
2016-07-01T02:00:33.747Z,0
2016-07-01T02:01:33.826Z,0
2016-07-01T02:02:33.886Z,0
2016-07-01T02:03:33.946Z,0
2016-07-01T02:04:33.178Z,0
2016-07-01T02:05:33.824Z,0
2016-07-01T02:06:36.311Z,0
2016-07-01T02:07:36.663Z,0
2016-07-01T02:08:36.054Z,0
2016-07-01T02:09:34.798Z,0
2016-07-01T02:10:34.830Z,0
2016-07-01T02:11:34.975Z,0
2016-07-01T02:12:34.015Z,0
2016-07-01T02:13:34.014Z,0
2016-07-01T02:14:34.382Z,0
2016-07-01T02:15:34.414Z,0
2016-07-01T02:16:33.835Z,0
2016-07-01T02:17:34.397Z,0
2016-07-01T02:18:34.377Z,0
2016-07-01T02:19:34.380Z,0
2016-07-01T02:20:34.370Z,0
2016-07-01T02:21:33.159Z,0
2016-07-01T02:22:34.986Z,0
2016-07-01T02:23:33.142Z,0
2016-07-01T02:24:33.148Z,0
2016-07-01T02:25:33.138Z,0
2016-07-01T02:26:33.145Z,0
2016-07-01T02:27:33.762Z,0
2016-07-01T02:28:33.743Z,0
2016-07-01T02:29:32.543Z,0
2016-07-01T02:30:33.771Z,0
2016-07-01T02:31:33.146Z,0
2016-07-01T02:32:34.359Z,0
2016-07-01T02:33:33.164Z,0
2016-07-01T02:34:33.754Z,5
2016-07-01T02:35:33.782Z,5
2016-07-01T02:36:34.940Z,5
2016-07-01T02:37:34.328Z,5
2016-07-01T02:38:33.118Z,5
2016-07-01T02:39:34.323Z,5
2016-07-01T02:40:34.386Z,5
2016-07-01T02:41:34.322Z,5
2016-07-01T02:42:34.930Z,5
2016-07-01T02:43:33.743Z,5
2016-07-01T02:44:34.929Z,10
2016-07-01T02:45:34.316Z,10
2016-07-01T02:46:33.780Z,10
2016-07-01T02:47:34.359Z,10
2016-07-01T02:48:33.103Z,10
2016-07-01T02:49:34.959Z,10
2016-07-01T02:50:35.279Z,15
2016-07-01T02:51:49.129Z,15
2016-07-01T02:52:34.072Z,15
2016-07-01T02:53:33.710Z,15
2016-07-01T02:54:33.450Z,15
2016-07-01T02:55:33.150Z,15
2016-07-01T02:56:32.473Z,20
2016-07-01T02:57:33.081Z,20
2016-07-01T02:58:49.890Z,20
2016-07-01T02:59:32.971Z,20
2016-07-01T03:00:48.257Z,25
2016-07-01T03:01:33.302Z,25
2016-07-01T03:02:33.087Z,25
2016-07-01T03:03:34.334Z,25
2016-07-01T03:04:33.683Z,30
2016-07-01T03:05:33.695Z,30
2016-07-01T03:06:33.864Z,30
2016-07-01T03:07:33.663Z,35
2016-07-01T03:08:33.666Z,35
2016-07-01T03:09:34.276Z,40
2016-07-01T03:10:34.289Z,40
2016-07-01T03:11:34.874Z,40
2016-07-01T03:12:33.683Z,40
2016-07-01T03:13:33.051Z,40
2016-07-01T03:14:33.658Z,40
2016-07-01T03:15:34.783Z,45
2016-07-01T03:16:35.757Z,45
2016-07-01T03:17:35.713Z,45
2016-07-01T03:18:34.706Z,50
2016-07-01T03:19:34.275Z,50
2016-07-01T03:20:33.309Z,55
2016-07-01T03:21:33.710Z,55
2016-07-01T03:22:34.522Z,60
2016-07-01T03:23:34.375Z,60
2016-07-01T03:24:35.231Z,60
2016-07-01T03:26:35.614Z,65
2016-07-01T03:27:35.373Z,75
2016-07-01T03:28:34.114Z,80
2016-07-01T03:29:34.262Z,75
2016-07-01T03:30:33.650Z,75
2016-07-01T03:31:33.028Z,70
2016-07-01T03:32:33.660Z,70
2016-07-01T03:33:33.641Z,75
2016-07-01T03:34:34.233Z,80
2016-07-01T03:35:33.023Z,80
2016-07-01T03:36:33.653Z,80
2016-07-01T03:37:33.650Z,80
2016-07-01T03:38:34.358Z,80
2016-07-01T03:39:33.004Z,80
2016-07-01T03:40:33.649Z,85
2016-07-01T03:41:33.023Z,85
2016-07-01T03:42:34.846Z,85
2016-07-01T03:43:33.626Z,90
2016-07-01T03:44:33.017Z,90
2016-07-01T03:45:33.657Z,95
2016-07-01T03:46:33.613Z,95
2016-07-01T03:47:34.275Z,95
2016-07-01T03:48:33.605Z,100
2016-07-01T03:49:33.660Z,100
2016-07-01T03:50:32.998Z,105
2016-07-01T03:51:33.000Z,110
2016-07-01T03:52:33.612Z,110
2016-07-01T03:53:33.004Z,115
2016-07-01T03:54:33.608Z,120
2016-07-01T03:55:34.224Z,125
2016-07-01T03:56:32.993Z,130
2016-07-01T03:57:34.219Z,135
2016-07-01T03:58:34.219Z,190
2016-07-01T03:59:33.587Z,240
2016-07-01T04:00:32.986Z,215
2016-07-01T04:01:32.361Z,270
2016-07-01T04:02:34.280Z,285
2016-07-01T04:03:34.238Z,290
2016-07-01T04:04:33.597Z,295
2016-07-01T04:05:34.838Z,300
2016-07-01T04:06:32.428Z,305
2016-07-01T04:08:34.734Z,310
2016-07-01T04:09:34.183Z,320
2016-07-01T04:10:34.862Z,335
2016-07-01T04:11:33.537Z,330
2016-07-01T04:12:33.652Z,330
2016-07-01T04:13:32.365Z,335
2016-07-01T04:14:32.991Z,345
2016-07-01T04:15:34.220Z,355
2016-07-01T04:16:32.988Z,350
2016-07-01T04:17:33.142Z,365
2016-07-01T04:18:34.187Z,385
2016-07-01T04:19:47.366Z,385
2016-07-01T04:20:34.472Z,390
2016-07-01T04:21:34.616Z,390
2016-07-01T04:22:33.628Z,420
2016-07-01T04:23:34.224Z,440
2016-07-01T04:24:33.640Z,435
2016-07-01T04:25:32.434Z,410
2016-07-01T04:26:33.042Z,400
2016-07-01T04:27:34.267Z,400
2016-07-01T04:28:34.275Z,410
2016-07-01T04:29:33.650Z,410
2016-07-01T04:30:33.667Z,410
2016-07-01T04:31:34.274Z,430
2016-07-01T04:32:34.292Z,455
2016-07-01T04:33:34.562Z,460
2016-07-01T04:34:34.787Z,465
2016-07-01T04:35:35.851Z,490
2016-07-01T04:36:33.698Z,495
2016-07-01T04:37:34.310Z,510
2016-07-01T04:38:35.063Z,555
2016-07-01T04:39:34.665Z,575
2016-07-01T04:40:33.814Z,560
2016-07-01T04:41:33.138Z,545
2016-07-01T04:42:34.563Z,570
2016-07-01T04:43:37.481Z,600
2016-07-01T04:44:36.189Z,600
2016-07-01T04:45:34.463Z,580
2016-07-01T04:46:34.319Z,580
2016-07-01T04:47:35.024Z,605
2016-07-01T04:48:34.551Z,625
2016-07-01T04:49:33.839Z,630
2016-07-01T04:50:33.811Z,630
2016-07-01T04:51:33.851Z,645
2016-07-01T04:52:33.865Z,680
2016-07-01T04:53:33.882Z,715
2016-07-01T04:54:32.644Z,745
2016-07-01T04:55:32.656Z,785
2016-07-01T04:56:33.897Z,795
2016-07-01T04:57:33.297Z,780
2016-07-01T04:58:33.927Z,775
2016-07-01T04:59:34.531Z,770
2016-07-01T05:00:33.337Z,760
2016-07-01T05:01:33.351Z,775
2016-07-01T05:02:34.569Z,810
2016-07-01T05:03:34.593Z,825
2016-07-01T05:04:35.196Z,830
2016-07-01T05:05:33.997Z,805
2016-07-01T05:06:35.327Z,800
2016-07-01T05:07:33.796Z,795
2016-07-01T05:08:33.418Z,800
2016-07-01T05:09:34.066Z,815
2016-07-01T05:10:34.052Z,850
2016-07-01T05:11:34.674Z,895
2016-07-01T05:12:34.075Z,915
2016-07-01T05:13:34.122Z,905
2016-07-01T05:14:33.492Z,905
2016-07-01T05:15:34.125Z,900
2016-07-01T05:16:35.324Z,915
2016-07-01T05:17:33.521Z,930
2016-07-01T05:18:34.133Z,935
2016-07-01T05:19:33.539Z,940
2016-07-01T05:20:34.181Z,945
2016-07-01T05:21:35.409Z,940
2016-07-01T05:22:35.428Z,955
2016-07-01T05:23:33.668Z,1000
2016-07-01T05:24:34.859Z,1055
2016-07-01T05:25:34.250Z,1075
2016-07-01T05:27:49.609Z,1015
2016-07-01T05:28:35.189Z,1015
2016-07-01T05:29:36.286Z,1045
2016-07-01T05:30:34.321Z,1110
2016-07-01T05:31:33.104Z,1135
2016-07-01T05:32:35.647Z,1155
2016-07-01T05:33:34.385Z,1150
2016-07-01T05:34:34.414Z,1290
2016-07-01T05:35:49.603Z,1475
2016-07-01T05:37:34.425Z,1415
2016-07-01T05:38:33.849Z,1290
2016-07-01T05:39:34.648Z,1245
2016-07-01T05:40:35.251Z,1270
2016-07-01T05:41:35.994Z,1315
2016-07-01T05:42:35.115Z,1350
2016-07-01T05:43:33.930Z,1360
2016-07-01T05:44:33.353Z,1345
2016-07-01T05:45:34.542Z,1340
2016-07-01T05:46:35.779Z,1340
2016-07-01T05:47:33.974Z,1320
2016-07-01T05:48:34.594Z,1305
2016-07-01T05:49:34.637Z,1330
2016-07-01T05:52:36.687Z,1485
2016-07-01T05:53:36.338Z,1500
2016-07-01T05:54:35.308Z,1550
2016-07-01T05:55:35.994Z,1575
2016-07-01T05:56:34.131Z,1410
2016-07-01T05:57:35.281Z,1290
2016-07-01T05:58:35.542Z,1410
2016-07-01T05:59:36.037Z,1495
2016-07-01T06:00:34.168Z,1545
2016-07-01T06:01:36.162Z,1550
2016-07-01T06:02:37.199Z,1575
2016-07-01T06:03:36.702Z,1570
2016-07-01T06:04:35.290Z,1525
2016-07-01T06:05:35.720Z,1515
2016-07-01T06:06:35.143Z,1580
2016-07-01T06:07:35.337Z,1635
2016-07-01T06:08:34.926Z,1665
2016-07-01T06:09:35.643Z,1695
2016-07-01T06:10:35.567Z,1705
2016-07-01T06:11:35.580Z,1690
2016-07-01T06:12:35.637Z,1665
2016-07-01T06:13:34.426Z,1330
2016-07-01T06:14:35.049Z,1305
2016-07-01T06:15:35.682Z,1255
2016-07-01T06:16:35.689Z,1185
2016-07-01T06:17:35.181Z,1155
2016-07-01T06:18:35.738Z,1190
2016-07-01T06:19:34.519Z,1270
2016-07-01T06:20:35.167Z,1330
2016-07-01T06:21:34.550Z,1325
2016-07-01T06:22:34.600Z,1315
2016-07-01T06:23:34.595Z,1310
2016-07-01T06:24:35.838Z,1320
2016-07-01T06:25:35.279Z,1375
2016-07-01T06:26:35.261Z,1405
2016-07-01T06:27:35.279Z,1465
2016-07-01T06:28:35.323Z,1510
2016-07-01T06:29:35.324Z,1555
2016-07-01T06:30:35.361Z,1590
2016-07-01T06:31:34.761Z,1615
2016-07-01T06:32:35.501Z,1595
2016-07-01T06:33:35.987Z,1560
2016-07-01T06:34:34.180Z,1575
2016-07-01T06:35:36.030Z,1585
2016-07-01T06:36:36.057Z,1525
2016-07-01T06:37:35.485Z,1475
2016-07-01T06:38:34.861Z,1530
2016-07-01T06:39:35.475Z,1615
2016-07-01T06:40:34.909Z,1670
2016-07-01T06:41:36.163Z,1685
2016-07-01T06:42:35.562Z,1645
2016-07-01T06:43:36.168Z,1530
2016-07-01T06:44:38.725Z,1555
2016-07-01T06:46:36.173Z,1510
2016-07-01T06:47:49.917Z,1545
2016-07-01T06:48:36.283Z,1385
2016-07-01T06:49:35.174Z,1425
2016-07-01T06:50:35.696Z,1555
2016-07-01T06:51:35.713Z,1495
2016-07-01T06:52:35.133Z,1555
2016-07-01T06:53:39.675Z,1580
2016-07-01T06:54:36.050Z,1515
2016-07-01T06:56:35.843Z,1535
2016-07-01T06:57:36.443Z,1450
2016-07-01T06:58:37.101Z,1225
2016-07-01T06:59:36.727Z,1270
2016-07-01T07:00:35.870Z,1395
2016-07-01T07:01:36.529Z,1385
2016-07-01T07:02:37.118Z,1530
2016-07-01T07:03:37.185Z,1610
2016-07-01T07:04:35.955Z,1620
2016-07-01T07:05:35.967Z,1670
2016-07-01T07:06:36.677Z,1655
2016-07-01T07:07:35.993Z,1440
2016-07-01T07:08:35.440Z,1355
2016-07-01T07:09:35.423Z,1495
2016-07-01T07:10:38.071Z,1425
2016-07-01T07:11:36.391Z,1245
2016-07-01T07:12:38.906Z,1335
2016-07-01T07:13:37.826Z,1440
2016-07-01T07:14:36.737Z,1585
2016-07-01T07:15:36.502Z,1760
2016-07-01T07:16:35.628Z,1810
2016-07-01T07:17:36.790Z,1655
2016-07-01T07:18:36.219Z,1575
2016-07-01T07:19:39.005Z,1200
2016-07-01T07:20:40.398Z,1095
2016-07-01T07:21:37.850Z,1375
2016-07-01T07:22:37.657Z,1440
2016-07-01T07:23:37.528Z,1590
2016-07-01T07:24:37.084Z,1625
2016-07-01T07:25:35.123Z,1740
2016-07-01T07:26:35.131Z,1765
2016-07-01T07:27:37.651Z,1770
2016-07-01T07:28:36.359Z,1720
2016-07-01T07:29:36.410Z,1715
2016-07-01T07:30:37.270Z,1655
2016-07-01T07:31:37.029Z,1635
2016-07-01T07:32:35.849Z,1630
2016-07-01T07:33:37.675Z,1605
2016-07-01T07:34:35.861Z,1585
2016-07-01T07:35:35.910Z,1700
2016-07-01T07:36:36.508Z,1695
2016-07-01T07:37:37.125Z,1640
2016-07-01T07:38:36.542Z,1625
2016-07-01T07:39:35.956Z,1620
2016-07-01T07:40:37.183Z,1530
2016-07-01T07:41:37.215Z,1715
2016-07-01T07:42:36.618Z,1685
2016-07-01T07:43:36.621Z,1585
2016-07-01T07:44:37.857Z,1670
2016-07-01T07:45:36.677Z,1715
2016-07-01T07:46:36.670Z,1815
2016-07-01T07:47:36.123Z,1800
2016-07-01T07:48:36.702Z,1680
2016-07-01T07:49:35.510Z,1355
2016-07-01T07:50:36.122Z,1730
2016-07-01T07:51:37.395Z,1865
2016-07-01T07:52:36.763Z,1980
2016-07-01T07:53:37.398Z,1660
2016-07-01T07:54:37.420Z,2040
2016-07-01T07:55:37.442Z,2055
2016-07-01T07:56:37.436Z,1865
2016-07-01T07:57:37.483Z,1375
2016-07-01T07:58:37.494Z,1620
2016-07-01T07:59:36.945Z,1860
2016-07-01T08:00:38.120Z,1945
2016-07-01T08:01:38.154Z,2120
2016-07-01T08:03:37.633Z,2130
2016-07-01T08:04:38.017Z,2230
2016-07-01T08:05:51.944Z,2255
2016-07-01T08:06:38.600Z,2200
2016-07-01T08:07:36.702Z,2020
2016-07-01T08:08:38.002Z,1675
2016-07-01T08:09:37.057Z,1970
2016-07-01T08:10:37.061Z,2075
2016-07-01T08:11:39.908Z,1945
2016-07-01T08:12:53.963Z,1595
2016-07-01T08:13:37.779Z,1690
2016-07-01T08:14:36.550Z,1680
2016-07-01T08:15:37.181Z,1500
2016-07-01T08:16:38.910Z,2130
2016-07-01T08:17:36.913Z,2100
2016-07-01T08:18:37.278Z,1585
2016-07-01T08:19:36.621Z,1950
2016-07-01T08:20:37.257Z,1880
2016-07-01T08:21:37.267Z,2085
2016-07-01T08:22:36.668Z,2060
2016-07-01T08:23:37.318Z,2105
2016-07-01T08:24:36.700Z,2015
2016-07-01T08:25:38.544Z,2195
2016-07-01T08:26:37.982Z,2140
2016-07-01T08:27:37.370Z,2100
2016-07-01T08:28:40.893Z,2145
2016-07-01T08:29:39.534Z,2150
2016-07-01T08:30:53.900Z,2200
2016-07-01T08:31:37.711Z,2145
2016-07-01T08:32:37.113Z,620
2016-07-01T08:33:36.874Z,2240
2016-07-01T08:34:37.483Z,2115
2016-07-01T08:35:37.662Z,1980
2016-07-01T08:36:38.152Z,780
2016-07-01T08:37:38.613Z,1805
2016-07-01T08:38:41.255Z,2055
2016-07-01T08:39:39.873Z,2050
2016-07-01T08:40:37.823Z,2045
2016-07-01T08:41:37.603Z,1065
2016-07-01T08:42:39.356Z,2205
2016-07-01T08:43:38.648Z,685
2016-07-01T08:44:38.483Z,1450
2016-07-01T08:45:37.705Z,770
2016-07-01T08:46:37.697Z,2250
2016-07-01T08:47:37.718Z,2450
2016-07-01T08:48:37.718Z,2290
2016-07-01T08:49:37.723Z,2310
2016-07-01T08:50:38.378Z,2505
2016-07-01T08:51:38.993Z,2545
2016-07-01T08:52:38.628Z,2480
2016-07-01T08:53:37.796Z,2430
2016-07-01T08:54:38.411Z,1810
2016-07-01T08:55:37.830Z,2375
2016-07-01T08:56:37.871Z,2475
2016-07-01T08:57:39.106Z,2430
2016-07-01T08:58:37.900Z,2235
2016-07-01T08:59:38.489Z,1680
2016-07-01T09:00:37.318Z,890
2016-07-01T09:01:37.968Z,590
2016-07-01T09:02:37.342Z,580
2016-07-01T09:03:37.941Z,565
2016-07-01T09:04:38.599Z,575
2016-07-01T09:05:38.024Z,595
2016-07-01T09:06:38.059Z,585
2016-07-01T09:07:38.682Z,585
2016-07-01T09:08:38.057Z,585
2016-07-01T09:09:39.283Z,585
2016-07-01T09:10:38.093Z,580
2016-07-01T09:11:38.697Z,585
2016-07-01T09:12:38.716Z,575
2016-07-01T09:13:38.726Z,580
2016-07-01T09:14:38.143Z,585
2016-07-01T09:15:38.835Z,580
2016-07-01T09:16:37.778Z,535
2016-07-01T09:17:36.947Z,545
2016-07-01T09:18:38.781Z,565
2016-07-01T09:19:39.400Z,545
2016-07-01T09:20:37.624Z,535
2016-07-01T09:21:53.728Z,515
2016-07-01T09:23:08.624Z,505
2016-07-01T09:23:39.363Z,495
2016-07-01T09:24:39.034Z,475
2016-07-01T09:25:38.276Z,460
2016-07-01T09:26:38.456Z,445
2016-07-01T09:27:37.694Z,435
2016-07-01T09:28:38.381Z,415
2016-07-01T09:29:38.932Z,405
2016-07-01T09:30:39.370Z,410
2016-07-01T09:31:53.391Z,415
2016-07-01T09:32:38.667Z,460
2016-07-01T09:33:38.231Z,460
2016-07-01T09:34:39.023Z,430
2016-07-01T09:35:39.078Z,415
2016-07-01T09:36:38.672Z,395
2016-07-01T09:37:38.996Z,400
2016-07-01T09:38:38.449Z,370
2016-07-01T09:39:39.659Z,420
2016-07-01T09:40:39.039Z,435
2016-07-01T09:41:39.667Z,410
2016-07-01T09:42:38.448Z,425
2016-07-01T09:43:39.054Z,455
2016-07-01T09:44:37.251Z,450
2016-07-01T09:45:38.471Z,450
2016-07-01T09:47:39.963Z,380
2016-07-01T09:48:39.361Z,385
2016-07-01T09:49:40.622Z,380
2016-07-01T09:50:39.138Z,375
2016-07-01T09:51:37.910Z,385
2016-07-01T09:52:37.925Z,410
2016-07-01T09:53:38.530Z,415
2016-07-01T09:54:38.683Z,405
2016-07-01T09:55:39.152Z,415
2016-07-01T09:56:41.646Z,430
2016-07-01T09:57:41.354Z,440
2016-07-01T09:58:40.221Z,455
2016-07-01T09:59:38.522Z,485
2016-07-01T10:00:39.311Z,495
2016-07-01T10:01:38.616Z,460
2016-07-01T10:02:39.062Z,445
2016-07-01T10:03:38.051Z,455
2016-07-01T10:04:38.632Z,490
2016-07-01T10:05:39.332Z,555
2016-07-01T10:06:38.117Z,620
2016-07-01T10:07:38.657Z,580
2016-07-01T10:08:38.686Z,540
2016-07-01T10:09:39.923Z,485
2016-07-01T10:10:38.083Z,460
2016-07-01T10:11:39.926Z,510
2016-07-01T10:12:38.756Z,535
2016-07-01T10:13:38.123Z,520
2016-07-01T10:14:38.729Z,490
2016-07-01T10:15:39.980Z,460
2016-07-01T10:16:39.958Z,430
2016-07-01T10:17:38.152Z,415
2016-07-01T10:18:39.404Z,415
2016-07-01T10:19:39.995Z,435
2016-07-01T10:20:38.182Z,460
2016-07-01T10:21:39.412Z,475
2016-07-01T10:22:39.406Z,510
2016-07-01T10:23:38.214Z,535
2016-07-01T10:24:39.447Z,500
2016-07-01T10:25:38.853Z,490
2016-07-01T10:26:38.230Z,455
2016-07-01T10:27:39.524Z,490
2016-07-01T10:28:39.801Z,570
2016-07-01T10:29:39.544Z,505
2016-07-01T10:30:37.724Z,470
2016-07-01T10:31:40.172Z,460
2016-07-01T10:32:40.142Z,460
2016-07-01T10:33:39.514Z,445
2016-07-01T10:34:37.754Z,435
2016-07-01T10:35:38.950Z,445
2016-07-01T10:36:38.957Z,450
2016-07-01T10:37:39.598Z,425
2016-07-01T10:38:39.616Z,425
2016-07-01T10:39:54.044Z,485
2016-07-01T10:40:40.801Z,505
2016-07-01T10:41:39.172Z,535
2016-07-01T10:42:40.633Z,525
2016-07-01T10:44:39.022Z,530
2016-07-01T10:45:40.329Z,595
2016-07-01T10:46:39.647Z,555
2016-07-01T10:47:38.428Z,495
2016-07-01T10:48:39.695Z,500
2016-07-01T10:49:56.089Z,480
2016-07-01T10:50:39.519Z,465
2016-07-01T10:51:41.109Z,465
2016-07-01T10:52:40.661Z,490
2016-07-01T10:53:39.119Z,485
2016-07-01T10:54:39.148Z,475
2016-07-01T10:55:39.112Z,555
2016-07-01T10:56:37.948Z,530
2016-07-01T10:57:39.142Z,490
2016-07-01T10:58:38.549Z,505
2016-07-01T10:59:40.378Z,530
2016-07-01T11:00:38.588Z,545
2016-07-01T11:01:39.765Z,525
2016-07-01T11:02:39.781Z,525
2016-07-01T11:03:39.807Z,510
2016-07-01T11:04:38.594Z,505
2016-07-01T11:05:41.105Z,485
2016-07-01T11:06:40.147Z,515
2016-07-01T11:07:40.336Z,535
2016-07-01T11:08:38.910Z,570
2016-07-01T11:09:39.954Z,610
2016-07-01T11:10:39.757Z,670
2016-07-01T11:11:39.265Z,650
2016-07-01T11:12:39.892Z,610
2016-07-01T11:13:39.296Z,565
2016-07-01T11:14:41.629Z,545
2016-07-01T11:15:42.699Z,530
2016-07-01T11:16:39.840Z,510
2016-07-01T11:17:39.956Z,535
2016-07-01T11:18:41.549Z,550
2016-07-01T11:19:38.717Z,545
2016-07-01T11:20:40.265Z,545
2016-07-01T11:21:40.585Z,555
2016-07-01T11:22:39.370Z,645
2016-07-01T11:23:39.365Z,695
2016-07-01T11:24:40.605Z,695
2016-07-01T11:25:38.787Z,700
2016-07-01T11:26:38.803Z,685
2016-07-01T11:27:40.011Z,635
2016-07-01T11:28:40.040Z,600
2016-07-01T11:29:40.047Z,585
2016-07-01T11:30:39.425Z,545
2016-07-01T11:31:40.070Z,540
2016-07-01T11:32:40.101Z,555
2016-07-01T11:33:38.849Z,580
2016-07-01T11:34:40.082Z,585
2016-07-01T11:35:38.898Z,580
2016-07-01T11:36:38.279Z,570
2016-07-01T11:37:40.737Z,540
2016-07-01T11:38:39.525Z,525
2016-07-01T11:39:40.130Z,545
2016-07-01T11:40:40.117Z,600
2016-07-01T11:41:39.552Z,655
2016-07-01T11:42:39.569Z,705
2016-07-01T11:43:38.963Z,720
2016-07-01T11:44:38.973Z,690
2016-07-01T11:45:40.183Z,615
2016-07-01T11:46:40.833Z,530
2016-07-01T11:47:39.586Z,505
2016-07-01T11:48:40.209Z,515
2016-07-01T11:49:40.221Z,495
2016-07-01T11:50:40.235Z,535
2016-07-01T11:51:39.022Z,580
2016-07-01T11:52:39.097Z,605
2016-07-01T11:53:39.647Z,640
2016-07-01T11:54:39.131Z,600
2016-07-01T11:55:38.518Z,640
2016-07-01T11:56:40.294Z,645
2016-07-01T11:57:40.317Z,595
2016-07-01T11:58:40.950Z,565
2016-07-01T11:59:40.762Z,580
2016-07-01T12:00:40.157Z,580
2016-07-01T12:01:41.004Z,610
2016-07-01T12:02:38.780Z,635
2016-07-01T12:03:39.294Z,640
2016-07-01T12:04:39.743Z,680
2016-07-01T12:05:41.019Z,710
2016-07-01T12:08:39.894Z,825
2016-07-01T12:09:41.860Z,805
2016-07-01T12:10:39.193Z,720
2016-07-01T12:11:53.489Z,675
2016-07-01T12:12:39.226Z,670
2016-07-01T12:13:39.259Z,650
2016-07-01T12:14:39.841Z,655
2016-07-01T12:15:39.234Z,630
2016-07-01T12:16:40.494Z,615
2016-07-01T12:17:39.894Z,610
2016-07-01T12:18:40.501Z,625
2016-07-01T12:19:40.539Z,630
2016-07-01T12:20:39.915Z,620
2016-07-01T12:21:41.160Z,550
2016-07-01T12:22:41.151Z,520
2016-07-01T12:23:43.507Z,560
2016-07-01T12:24:41.057Z,585
2016-07-01T12:25:42.350Z,585
2016-07-01T12:26:41.950Z,565
2016-07-01T12:27:40.463Z,545
2016-07-01T12:28:39.992Z,560
2016-07-01T12:29:39.375Z,590
2016-07-01T12:30:40.029Z,570
2016-07-01T12:31:40.027Z,520
2016-07-01T12:32:42.999Z,495
2016-07-01T12:33:43.543Z,470
2016-07-01T12:34:41.719Z,440
2016-07-01T12:35:41.966Z,440
2016-07-01T12:36:42.079Z,440
2016-07-01T12:37:40.687Z,455
2016-07-01T12:38:41.891Z,450
2016-07-01T12:39:40.088Z,440
2016-07-01T12:40:40.714Z,455
2016-07-01T12:41:40.753Z,440
2016-07-01T12:42:39.513Z,430
2016-07-01T12:43:41.367Z,420
2016-07-01T12:44:38.951Z,415
2016-07-01T12:45:38.936Z,400
2016-07-01T12:46:40.175Z,390
2016-07-01T12:47:40.187Z,370
2016-07-01T12:48:40.801Z,355
2016-07-01T12:49:40.823Z,350
2016-07-01T12:50:40.809Z,345
2016-07-01T12:51:40.836Z,335
2016-07-01T12:52:40.238Z,335
2016-07-01T12:53:40.257Z,355
2016-07-01T12:54:40.852Z,395
2016-07-01T12:55:41.490Z,470
2016-07-01T12:56:41.506Z,470
2016-07-01T12:57:40.912Z,450
2016-07-01T12:58:40.922Z,410
2016-07-01T12:59:40.921Z,410
2016-07-01T13:00:40.918Z,420
2016-07-01T13:01:41.570Z,420
2016-07-01T13:02:41.556Z,420
2016-07-01T13:03:40.358Z,410
2016-07-01T13:04:41.574Z,375
2016-07-01T13:05:40.364Z,355
2016-07-01T13:06:41.575Z,340
2016-07-01T13:07:39.126Z,325
2016-07-01T13:08:39.045Z,315
2016-07-01T13:09:39.050Z,320
2016-07-01T13:10:39.047Z,310
2016-07-01T13:11:39.067Z,305
2016-07-01T13:12:39.074Z,300
2016-07-01T13:13:39.093Z,305
2016-07-01T13:14:39.100Z,320
2016-07-01T13:15:53.986Z,340
2016-07-01T13:17:39.578Z,365
2016-07-01T13:18:54.435Z,370
2016-07-01T13:19:39.146Z,375
2016-07-01T13:20:39.144Z,405
2016-07-01T13:21:39.567Z,435
2016-07-01T13:22:39.156Z,460
2016-07-01T13:23:39.164Z,460
2016-07-01T13:24:39.175Z,445
2016-07-01T13:26:54.095Z,425
2016-07-01T13:27:54.602Z,440
2016-07-01T13:28:39.672Z,465
2016-07-01T13:29:39.621Z,485
2016-07-01T13:30:39.225Z,485
2016-07-01T13:31:39.505Z,470
2016-07-01T13:32:39.602Z,435
2016-07-01T13:33:39.273Z,415
2016-07-01T13:34:39.260Z,385
2016-07-01T13:35:39.292Z,335
2016-07-01T13:36:39.290Z,310
2016-07-01T13:37:39.285Z,300
2016-07-01T13:38:39.302Z,320
2016-07-01T13:39:39.291Z,375
2016-07-01T13:40:39.308Z,445
2016-07-01T13:42:41.025Z,435
2016-07-01T13:43:43.846Z,415
2016-07-01T13:44:41.170Z,435
2016-07-01T13:45:41.503Z,500
2016-07-01T13:46:40.584Z,530
2016-07-01T13:47:39.386Z,530
2016-07-01T13:48:39.387Z,525
2016-07-01T13:49:39.406Z,505
2016-07-01T13:50:39.405Z,455
2016-07-01T13:51:41.029Z,425
2016-07-01T13:52:42.583Z,410
2016-07-01T13:53:40.547Z,395
2016-07-01T13:54:41.518Z,385
2016-07-01T13:55:41.109Z,395
2016-07-01T13:56:39.845Z,430
2016-07-01T13:57:39.453Z,440
2016-07-01T13:58:39.469Z,420
2016-07-01T13:59:39.490Z,425
2016-07-01T14:00:39.495Z,425
2016-07-01T14:01:39.503Z,405
2016-07-01T14:02:39.509Z,415
2016-07-01T14:03:39.521Z,465
2016-07-01T14:04:39.537Z,515
2016-07-01T14:05:39.538Z,540
2016-07-01T14:06:39.547Z,560
2016-07-01T14:07:39.560Z,575
2016-07-01T14:08:39.567Z,575